sensor_id;sensor_type;location;lat;lon;timestamp;P1;durP1;ratioP1;P2;durP2;ratioP2
6197;SDS011;3132;42.622;23.328;2023-05-01T00:02:18;11.10;;;10.47;;
6197;SDS011;3132;42.622;23.328;2023-05-01T00:04:44;9.80;;;9.10;;
6197;SDS011;3132;42.622;23.328;2023-05-01T00:07:09;12.10;;;11.20;;
6197;SDS011;3132;42.622;23.328;2023-05-01T00:09:35;12.13;;;11.00;;
6197;SDS011;3132;42.622;23.328;2023-05-01T00:12:00;11.17;;;10.47;;
6197;SDS011;3132;42.622;23.328;2023-05-01T00:14:27;11.30;;;10.50;;
6197;SDS011;3132;42.622;23.328;2023-05-01T00:16:52;12.57;;;11.53;;
6197;SDS011;3132;42.622;23.328;2023-05-01T00:19:18;11.30;;;10.70;;
6197;SDS011;3132;42.622;23.328;2023-05-01T00:21:44;11.10;;;10.43;;
6197;SDS011;3132;42.622;23.328;2023-05-01T00:24:10;13.00;;;11.97;;
6197;SDS011;3132;42.622;23.328;2023-05-01T00:26:36;12.53;;;11.67;;
6197;SDS011;3132;42.622;23.328;2023-05-01T00:29:01;12.23;;;11.17;;
6197;SDS011;3132;42.622;23.328;2023-05-01T00:31:27;13.07;;;12.17;;
6197;SDS011;3132;42.622;23.328;2023-05-01T00:33:52;11.70;;;10.87;;
6197;SDS011;3132;42.622;23.328;2023-05-01T00:36:18;13.83;;;12.73;;
6197;SDS011;3132;42.622;23.328;2023-05-01T00:38:43;11.10;;;10.50;;
6197;SDS011;3132;42.622;23.328;2023-05-01T00:41:10;12.03;;;11.33;;
6197;SDS011;3132;42.622;23.328;2023-05-01T00:43:35;12.43;;;11.53;;
6197;SDS011;3132;42.622;23.328;2023-05-01T00:46:01;11.63;;;10.93;;
6197;SDS011;3132;42.622;23.328;2023-05-01T00:48:27;12.23;;;11.33;;
6197;SDS011;3132;42.622;23.328;2023-05-01T00:50:52;11.93;;;11.23;;
6197;SDS011;3132;42.622;23.328;2023-05-01T00:53:20;12.33;;;11.33;;
6197;SDS011;3132;42.622;23.328;2023-05-01T00:55:45;12.83;;;12.07;;
6197;SDS011;3132;42.622;23.328;2023-05-01T00:58:11;12.43;;;11.70;;
6197;SDS011;3132;42.622;23.328;2023-05-01T01:00:37;12.73;;;11.83;;
6197;SDS011;3132;42.622;23.328;2023-05-01T01:03:03;12.07;;;11.37;;
6197;SDS011;3132;42.622;23.328;2023-05-01T01:05:28;13.37;;;12.57;;
6197;SDS011;3132;42.622;23.328;2023-05-01T01:08:05;12.27;;;11.20;;
6197;SDS011;3132;42.622;23.328;2023-05-01T01:13:31;11.70;;;11.00;;
6197;SDS011;3132;42.622;23.328;2023-05-01T01:18:49;11.33;;;10.40;;
6197;SDS011;3132;42.622;23.328;2023-05-01T01:21:27;12.93;;;12.13;;
6197;SDS011;3132;42.622;23.328;2023-05-01T01:35:36;11.90;;;11.10;;
6197;SDS011;3132;42.622;23.328;2023-05-01T01:38:13;12.73;;;11.93;;
6197;SDS011;3132;42.622;23.328;2023-05-01T01:40:56;12.10;;;11.40;;
6197;SDS011;3132;42.622;23.328;2023-05-01T01:43:35;12.70;;;11.93;;
6197;SDS011;3132;42.622;23.328;2023-05-01T01:46:04;11.63;;;10.93;;
6197;SDS011;3132;42.622;23.328;2023-05-01T01:48:32;13.57;;;12.47;;
6197;SDS011;3132;42.622;23.328;2023-05-01T01:51:01;11.37;;;10.67;;
6197;SDS011;3132;42.622;23.328;2023-05-01T01:53:32;12.10;;;11.30;;
6197;SDS011;3132;42.622;23.328;2023-05-01T01:56:01;13.23;;;12.40;;
6197;SDS011;3132;42.622;23.328;2023-05-01T01:58:28;11.47;;;10.77;;
6197;SDS011;3132;42.622;23.328;2023-05-01T02:00:55;13.50;;;11.83;;
6197;SDS011;3132;42.622;23.328;2023-05-01T02:03:22;14.17;;;11.70;;
6197;SDS011;3132;42.622;23.328;2023-05-01T02:05:48;12.37;;;11.63;;
6197;SDS011;3132;42.622;23.328;2023-05-01T02:08:16;12.77;;;11.87;;
6197;SDS011;3132;42.622;23.328;2023-05-01T02:10:42;12.37;;;11.53;;
6197;SDS011;3132;42.622;23.328;2023-05-01T02:13:11;13.90;;;12.83;;
6197;SDS011;3132;42.622;23.328;2023-05-01T02:15:38;13.40;;;12.50;;
6197;SDS011;3132;42.622;23.328;2023-05-01T02:18:04;11.80;;;10.93;;
6197;SDS011;3132;42.622;23.328;2023-05-01T02:20:31;12.30;;;11.27;;
6197;SDS011;3132;42.622;23.328;2023-05-01T02:22:57;11.60;;;10.83;;
6197;SDS011;3132;42.622;23.328;2023-05-01T02:25:24;13.03;;;12.10;;
6197;SDS011;3132;42.622;23.328;2023-05-01T02:27:55;12.87;;;11.83;;
6197;SDS011;3132;42.622;23.328;2023-05-01T02:30:24;12.10;;;11.30;;
6197;SDS011;3132;42.622;23.328;2023-05-01T02:32:50;13.20;;;12.40;;
6197;SDS011;3132;42.622;23.328;2023-05-01T02:35:15;12.73;;;12.03;;
6197;SDS011;3132;42.622;23.328;2023-05-01T02:37:41;12.30;;;10.93;;
6197;SDS011;3132;42.622;23.328;2023-05-01T02:40:07;11.47;;;10.77;;
6197;SDS011;3132;42.622;23.328;2023-05-01T02:42:35;11.70;;;11.00;;
6197;SDS011;3132;42.622;23.328;2023-05-01T02:45:04;10.90;;;10.20;;
6197;SDS011;3132;42.622;23.328;2023-05-01T02:47:38;12.60;;;11.80;;
6197;SDS011;3132;42.622;23.328;2023-05-01T02:50:08;11.47;;;10.87;;
6197;SDS011;3132;42.622;23.328;2023-05-01T02:52:35;11.43;;;10.73;;
6197;SDS011;3132;42.622;23.328;2023-05-01T02:55:02;11.50;;;10.73;;
6197;SDS011;3132;42.622;23.328;2023-05-01T02:57:27;12.33;;;11.63;;
6197;SDS011;3132;42.622;23.328;2023-05-01T02:59:53;12.23;;;11.43;;
6197;SDS011;3132;42.622;23.328;2023-05-01T03:02:18;12.13;;;11.23;;
6197;SDS011;3132;42.622;23.328;2023-05-01T03:04:43;12.13;;;11.43;;
6197;SDS011;3132;42.622;23.328;2023-05-01T03:07:09;10.93;;;10.23;;
6197;SDS011;3132;42.622;23.328;2023-05-01T03:09:34;11.77;;;10.73;;
6197;SDS011;3132;42.622;23.328;2023-05-01T03:12:00;11.80;;;11.10;;
6197;SDS011;3132;42.622;23.328;2023-05-01T03:14:26;12.03;;;11.23;;
6197;SDS011;3132;42.622;23.328;2023-05-01T03:16:53;11.50;;;10.80;;
6197;SDS011;3132;42.622;23.328;2023-05-01T03:19:19;11.73;;;10.97;;
6197;SDS011;3132;42.622;23.328;2023-05-01T03:21:44;12.50;;;11.80;;
6197;SDS011;3132;42.622;23.328;2023-05-01T03:24:09;11.60;;;10.80;;
6197;SDS011;3132;42.622;23.328;2023-05-01T03:26:35;12.30;;;11.50;;
6197;SDS011;3132;42.622;23.328;2023-05-01T03:29:01;11.93;;;11.23;;
6197;SDS011;3132;42.622;23.328;2023-05-01T03:31:26;12.37;;;11.47;;
6197;SDS011;3132;42.622;23.328;2023-05-01T03:33:51;12.17;;;11.37;;
6197;SDS011;3132;42.622;23.328;2023-05-01T03:36:17;11.77;;;10.93;;
6197;SDS011;3132;42.622;23.328;2023-05-01T03:38:42;12.30;;;11.50;;
6197;SDS011;3132;42.622;23.328;2023-05-01T03:41:08;11.90;;;11.17;;
6197;SDS011;3132;42.622;23.328;2023-05-01T03:43:33;12.93;;;12.13;;
6197;SDS011;3132;42.622;23.328;2023-05-01T03:45:59;12.50;;;11.67;;
6197;SDS011;3132;42.622;23.328;2023-05-01T03:48:24;13.03;;;12.07;;
6197;SDS011;3132;42.622;23.328;2023-05-01T03:50:50;13.30;;;12.43;;
6197;SDS011;3132;42.622;23.328;2023-05-01T03:53:15;13.23;;;11.97;;
6197;SDS011;3132;42.622;23.328;2023-05-01T03:55:41;15.37;;;12.17;;
6197;SDS011;3132;42.622;23.328;2023-05-01T03:58:07;12.60;;;11.77;;
6197;SDS011;3132;42.622;23.328;2023-05-01T04:00:32;13.00;;;11.93;;
6197;SDS011;3132;42.622;23.328;2023-05-01T04:02:58;12.90;;;11.90;;
6197;SDS011;3132;42.622;23.328;2023-05-01T04:05:24;13.63;;;12.70;;
6197;SDS011;3132;42.622;23.328;2023-05-01T04:07:49;16.37;;;13.13;;
6197;SDS011;3132;42.622;23.328;2023-05-01T04:10:14;11.97;;;11.17;;
6197;SDS011;3132;42.622;23.328;2023-05-01T04:12:41;15.53;;;14.33;;
6197;SDS011;3132;42.622;23.328;2023-05-01T04:15:07;13.23;;;12.40;;
6197;SDS011;3132;42.622;23.328;2023-05-01T04:17:34;12.77;;;11.80;;
6197;SDS011;3132;42.622;23.328;2023-05-01T04:20:00;12.83;;;12.00;;
6197;SDS011;3132;42.622;23.328;2023-05-01T04:22:25;13.10;;;12.20;;
6197;SDS011;3132;42.622;23.328;2023-05-01T04:24:51;12.77;;;11.87;;
6197;SDS011;3132;42.622;23.328;2023-05-01T04:27:16;12.03;;;11.23;;
6197;SDS011;3132;42.622;23.328;2023-05-01T04:29:43;13.67;;;12.47;;
6197;SDS011;3132;42.622;23.328;2023-05-01T04:32:09;13.70;;;12.57;;
6197;SDS011;3132;42.622;23.328;2023-05-01T04:34:35;13.13;;;12.20;;
6197;SDS011;3132;42.622;23.328;2023-05-01T04:37:00;13.00;;;12.10;;
6197;SDS011;3132;42.622;23.328;2023-05-01T04:39:27;14.10;;;12.93;;
6197;SDS011;3132;42.622;23.328;2023-05-01T04:41:52;14.80;;;13.47;;
6197;SDS011;3132;42.622;23.328;2023-05-01T04:44:17;13.47;;;12.47;;
6197;SDS011;3132;42.622;23.328;2023-05-01T04:46:43;13.27;;;11.60;;
6197;SDS011;3132;42.622;23.328;2023-05-01T04:49:09;14.43;;;13.40;;
6197;SDS011;3132;42.622;23.328;2023-05-01T04:51:34;14.90;;;13.70;;
6197;SDS011;3132;42.622;23.328;2023-05-01T04:53:59;14.53;;;12.33;;
6197;SDS011;3132;42.622;23.328;2023-05-01T04:56:25;14.03;;;12.93;;
6197;SDS011;3132;42.622;23.328;2023-05-01T04:58:51;13.87;;;12.77;;
6197;SDS011;3132;42.622;23.328;2023-05-01T05:01:16;14.27;;;13.13;;
6197;SDS011;3132;42.622;23.328;2023-05-01T05:03:42;14.07;;;12.70;;
6197;SDS011;3132;42.622;23.328;2023-05-01T05:06:07;14.00;;;12.93;;
6197;SDS011;3132;42.622;23.328;2023-05-01T05:08:33;13.90;;;12.60;;
6197;SDS011;3132;42.622;23.328;2023-05-01T05:10:58;13.67;;;12.67;;
6197;SDS011;3132;42.622;23.328;2023-05-01T05:13:24;15.43;;;14.23;;
6197;SDS011;3132;42.622;23.328;2023-05-01T05:15:50;13.70;;;12.70;;
6197;SDS011;3132;42.622;23.328;2023-05-01T05:18:15;14.67;;;13.43;;
6197;SDS011;3132;42.622;23.328;2023-05-01T05:20:40;14.63;;;13.43;;
6197;SDS011;3132;42.622;23.328;2023-05-01T05:23:06;16.00;;;14.30;;
6197;SDS011;3132;42.622;23.328;2023-05-01T05:25:31;16.10;;;14.77;;
6197;SDS011;3132;42.622;23.328;2023-05-01T05:27:57;15.27;;;13.97;;
6197;SDS011;3132;42.622;23.328;2023-05-01T05:30:24;15.97;;;14.67;;
6197;SDS011;3132;42.622;23.328;2023-05-01T05:32:50;15.70;;;14.50;;
6197;SDS011;3132;42.622;23.328;2023-05-01T05:35:16;16.13;;;14.83;;
6197;SDS011;3132;42.622;23.328;2023-05-01T05:37:41;16.43;;;15.13;;
6197;SDS011;3132;42.622;23.328;2023-05-01T05:40:07;15.33;;;14.03;;
6197;SDS011;3132;42.622;23.328;2023-05-01T05:42:33;13.63;;;12.33;;
6197;SDS011;3132;42.622;23.328;2023-05-01T05:44:59;14.43;;;13.03;;
6197;SDS011;3132;42.622;23.328;2023-05-01T05:47:24;13.30;;;12.10;;
6197;SDS011;3132;42.622;23.328;2023-05-01T05:49:49;12.48;;;11.57;;
6197;SDS011;3132;42.622;23.328;2023-05-01T05:52:15;11.60;;;10.60;;
6197;SDS011;3132;42.622;23.328;2023-05-01T05:54:41;13.07;;;12.00;;
6197;SDS011;3132;42.622;23.328;2023-05-01T05:57:07;12.45;;;11.52;;
6197;SDS011;3132;42.622;23.328;2023-05-01T05:59:32;12.23;;;11.43;;
6197;SDS011;3132;42.622;23.328;2023-05-01T06:01:58;11.77;;;10.77;;
6197;SDS011;3132;42.622;23.328;2023-05-01T06:04:23;12.13;;;11.13;;
6197;SDS011;3132;42.622;23.328;2023-05-01T06:06:49;12.27;;;11.18;;
6197;SDS011;3132;42.622;23.328;2023-05-01T06:09:14;12.93;;;11.73;;
6197;SDS011;3132;42.622;23.328;2023-05-01T06:11:41;12.13;;;11.23;;
6197;SDS011;3132;42.622;23.328;2023-05-01T06:14:06;13.02;;;11.80;;
6197;SDS011;3132;42.622;23.328;2023-05-01T06:16:32;13.65;;;12.65;;
6197;SDS011;3132;42.622;23.328;2023-05-01T06:18:58;13.43;;;12.43;;
6197;SDS011;3132;42.622;23.328;2023-05-01T06:21:23;14.73;;;13.25;;
6197;SDS011;3132;42.622;23.328;2023-05-01T06:23:49;14.13;;;12.93;;
6197;SDS011;3132;42.622;23.328;2023-05-01T06:26:15;14.48;;;13.20;;
6197;SDS011;3132;42.622;23.328;2023-05-01T06:28:40;15.40;;;14.00;;
6197;SDS011;3132;42.622;23.328;2023-05-01T06:31:05;15.90;;;14.30;;
6197;SDS011;3132;42.622;23.328;2023-05-01T06:33:31;15.13;;;13.97;;
6197;SDS011;3132;42.622;23.328;2023-05-01T06:35:56;16.17;;;14.83;;
6197;SDS011;3132;42.622;23.328;2023-05-01T06:38:24;16.50;;;14.77;;
6197;SDS011;3132;42.622;23.328;2023-05-01T06:40:50;14.77;;;13.60;;
6197;SDS011;3132;42.622;23.328;2023-05-01T06:43:15;15.43;;;14.27;;
6197;SDS011;3132;42.622;23.328;2023-05-01T06:45:41;16.77;;;15.03;;
6197;SDS011;3132;42.622;23.328;2023-05-01T06:48:06;16.20;;;14.90;;
6197;SDS011;3132;42.622;23.328;2023-05-01T06:50:32;15.83;;;14.60;;
6197;SDS011;3132;42.622;23.328;2023-05-01T06:52:57;17.47;;;16.07;;
6197;SDS011;3132;42.622;23.328;2023-05-01T06:55:24;16.43;;;15.03;;
6197;SDS011;3132;42.622;23.328;2023-05-01T06:57:50;16.27;;;14.60;;
6197;SDS011;3132;42.622;23.328;2023-05-01T07:00:16;13.40;;;12.30;;
6197;SDS011;3132;42.622;23.328;2023-05-01T07:02:43;13.97;;;12.53;;
6197;SDS011;3132;42.622;23.328;2023-05-01T07:05:09;14.93;;;13.53;;
6197;SDS011;3132;42.622;23.328;2023-05-01T07:07:34;14.03;;;13.07;;
6197;SDS011;3132;42.622;23.328;2023-05-01T07:10:00;15.90;;;12.83;;
6197;SDS011;3132;42.622;23.328;2023-05-01T07:12:25;14.47;;;13.40;;
6197;SDS011;3132;42.622;23.328;2023-05-01T07:14:51;15.00;;;13.73;;
6197;SDS011;3132;42.622;23.328;2023-05-01T07:17:16;13.37;;;12.47;;
6197;SDS011;3132;42.622;23.328;2023-05-01T07:19:42;13.10;;;12.10;;
6197;SDS011;3132;42.622;23.328;2023-05-01T07:22:07;13.87;;;12.73;;
6197;SDS011;3132;42.622;23.328;2023-05-01T07:24:33;13.07;;;12.27;;
6197;SDS011;3132;42.622;23.328;2023-05-01T07:26:58;14.57;;;13.27;;
6197;SDS011;3132;42.622;23.328;2023-05-01T07:29:24;14.50;;;13.23;;
6197;SDS011;3132;42.622;23.328;2023-05-01T07:31:49;14.13;;;12.90;;
6197;SDS011;3132;42.622;23.328;2023-05-01T07:34:14;13.13;;;12.23;;
6197;SDS011;3132;42.622;23.328;2023-05-01T07:36:42;14.13;;;13.13;;
6197;SDS011;3132;42.622;23.328;2023-05-01T07:39:07;13.47;;;12.30;;
6197;SDS011;3132;42.622;23.328;2023-05-01T07:41:33;12.83;;;11.93;;
6197;SDS011;3132;42.622;23.328;2023-05-01T07:43:58;13.33;;;12.17;;
6197;SDS011;3132;42.622;23.328;2023-05-01T07:46:24;14.07;;;12.97;;
6197;SDS011;3132;42.622;23.328;2023-05-01T07:48:49;14.00;;;13.00;;
6197;SDS011;3132;42.622;23.328;2023-05-01T07:51:14;14.33;;;13.13;;
6197;SDS011;3132;42.622;23.328;2023-05-01T07:53:40;15.13;;;13.87;;
6197;SDS011;3132;42.622;23.328;2023-05-01T07:56:07;13.53;;;12.53;;
6197;SDS011;3132;42.622;23.328;2023-05-01T07:58:33;14.97;;;13.57;;
6197;SDS011;3132;42.622;23.328;2023-05-01T08:01:00;13.03;;;11.83;;
6197;SDS011;3132;42.622;23.328;2023-05-01T08:03:29;12.53;;;11.53;;
6197;SDS011;3132;42.622;23.328;2023-05-01T08:05:55;14.67;;;13.47;;
6197;SDS011;3132;42.622;23.328;2023-05-01T08:08:21;15.03;;;13.93;;
6197;SDS011;3132;42.622;23.328;2023-05-01T08:10:47;15.27;;;13.90;;
6197;SDS011;3132;42.622;23.328;2023-05-01T08:13:12;14.20;;;13.07;;
6197;SDS011;3132;42.622;23.328;2023-05-01T08:15:38;13.77;;;12.67;;
6197;SDS011;3132;42.622;23.328;2023-05-01T08:18:06;14.60;;;13.53;;
6197;SDS011;3132;42.622;23.328;2023-05-01T08:20:32;13.17;;;12.27;;
6197;SDS011;3132;42.622;23.328;2023-05-01T08:22:57;13.93;;;12.73;;
6197;SDS011;3132;42.622;23.328;2023-05-01T08:25:23;12.93;;;12.07;;
6197;SDS011;3132;42.622;23.328;2023-05-01T08:27:48;12.20;;;11.20;;
6197;SDS011;3132;42.622;23.328;2023-05-01T08:30:14;12.27;;;11.47;;
6197;SDS011;3132;42.622;23.328;2023-05-01T08:32:39;13.63;;;12.53;;
6197;SDS011;3132;42.622;23.328;2023-05-01T08:35:05;14.27;;;12.90;;
6197;SDS011;3132;42.622;23.328;2023-05-01T08:37:30;12.13;;;11.13;;
6197;SDS011;3132;42.622;23.328;2023-05-01T08:39:56;11.73;;;10.87;;
6197;SDS011;3132;42.622;23.328;2023-05-01T08:42:21;13.07;;;12.17;;
6197;SDS011;3132;42.622;23.328;2023-05-01T08:44:47;10.83;;;10.03;;
6197;SDS011;3132;42.622;23.328;2023-05-01T08:47:15;11.27;;;10.50;;
6197;SDS011;3132;42.622;23.328;2023-05-01T08:49:43;11.37;;;10.57;;
6197;SDS011;3132;42.622;23.328;2023-05-01T08:52:10;12.70;;;11.50;;
6197;SDS011;3132;42.622;23.328;2023-05-01T08:54:43;11.73;;;10.83;;
6197;SDS011;3132;42.622;23.328;2023-05-01T08:57:11;11.53;;;10.63;;
6197;SDS011;3132;42.622;23.328;2023-05-01T08:59:37;13.07;;;11.90;;
6197;SDS011;3132;42.622;23.328;2023-05-01T09:02:05;11.13;;;10.03;;
6197;SDS011;3132;42.622;23.328;2023-05-01T09:04:33;11.10;;;10.30;;
6197;SDS011;3132;42.622;23.328;2023-05-01T09:07:01;11.07;;;10.30;;
6197;SDS011;3132;42.622;23.328;2023-05-01T09:09:27;10.93;;;10.20;;
6197;SDS011;3132;42.622;23.328;2023-05-01T09:11:53;11.13;;;10.37;;
6197;SDS011;3132;42.622;23.328;2023-05-01T09:14:33;10.50;;;9.70;;
6197;SDS011;3132;42.622;23.328;2023-05-01T09:16:58;10.07;;;9.57;;
6197;SDS011;3132;42.622;23.328;2023-05-01T09:19:24;10.97;;;10.07;;
6197;SDS011;3132;42.622;23.328;2023-05-01T09:21:52;9.63;;;9.03;;
6197;SDS011;3132;42.622;23.328;2023-05-01T09:24:18;10.83;;;10.33;;
6197;SDS011;3132;42.622;23.328;2023-05-01T09:26:44;10.67;;;9.77;;
6197;SDS011;3132;42.622;23.328;2023-05-01T09:29:10;9.83;;;9.23;;
6197;SDS011;3132;42.622;23.328;2023-05-01T09:31:35;10.23;;;9.63;;
6197;SDS011;3132;42.622;23.328;2023-05-01T09:34:02;10.00;;;9.40;;
6197;SDS011;3132;42.622;23.328;2023-05-01T09:36:29;10.10;;;9.40;;
6197;SDS011;3132;42.622;23.328;2023-05-01T09:38:57;10.77;;;10.17;;
6197;SDS011;3132;42.622;23.328;2023-05-01T09:41:24;10.10;;;9.50;;
6197;SDS011;3132;42.622;23.328;2023-05-01T09:43:51;9.80;;;9.23;;
6197;SDS011;3132;42.622;23.328;2023-05-01T09:46:19;10.07;;;9.47;;
6197;SDS011;3132;42.622;23.328;2023-05-01T09:48:51;10.67;;;10.07;;
6197;SDS011;3132;42.622;23.328;2023-05-01T09:51:27;9.47;;;9.07;;
6197;SDS011;3132;42.622;23.328;2023-05-01T09:53:54;11.50;;;10.70;;
6197;SDS011;3132;42.622;23.328;2023-05-01T09:56:21;10.23;;;9.53;;
6197;SDS011;3132;42.622;23.328;2023-05-01T09:58:51;9.90;;;9.20;;
6197;SDS011;3132;42.622;23.328;2023-05-01T10:01:18;9.67;;;9.13;;
6197;SDS011;3132;42.622;23.328;2023-05-01T10:04:02;9.90;;;9.40;;
6197;SDS011;3132;42.622;23.328;2023-05-01T10:06:27;9.90;;;8.90;;
6197;SDS011;3132;42.622;23.328;2023-05-01T10:08:53;10.47;;;9.67;;
6197;SDS011;3132;42.622;23.328;2023-05-01T10:11:19;9.23;;;8.73;;
6197;SDS011;3132;42.622;23.328;2023-05-01T10:13:45;9.80;;;9.30;;
6197;SDS011;3132;42.622;23.328;2023-05-01T10:16:27;9.43;;;8.93;;
6197;SDS011;3132;42.622;23.328;2023-05-01T10:18:57;8.83;;;8.13;;
6197;SDS011;3132;42.622;23.328;2023-05-01T10:21:24;9.67;;;9.17;;
6197;SDS011;3132;42.622;23.328;2023-05-01T10:23:50;10.07;;;9.37;;
6197;SDS011;3132;42.622;23.328;2023-05-01T10:26:16;9.90;;;9.37;;
6197;SDS011;3132;42.622;23.328;2023-05-01T10:28:43;9.40;;;8.77;;
6197;SDS011;3132;42.622;23.328;2023-05-01T10:31:11;10.40;;;9.77;;
6197;SDS011;3132;42.622;23.328;2023-05-01T10:33:40;9.50;;;8.93;;
6197;SDS011;3132;42.622;23.328;2023-05-01T10:36:09;9.50;;;8.90;;
6197;SDS011;3132;42.622;23.328;2023-05-01T10:38:42;9.80;;;9.20;;
6197;SDS011;3132;42.622;23.328;2023-05-01T10:41:12;9.67;;;9.07;;
6197;SDS011;3132;42.622;23.328;2023-05-01T10:43:37;9.20;;;8.60;;
6197;SDS011;3132;42.622;23.328;2023-05-01T10:53:32;9.80;;;9.07;;
6197;SDS011;3132;42.622;23.328;2023-05-01T10:55:58;9.60;;;9.03;;
6197;SDS011;3132;42.622;23.328;2023-05-01T11:03:51;9.30;;;8.73;;
6197;SDS011;3132;42.622;23.328;2023-05-01T11:06:16;9.83;;;9.23;;
6197;SDS011;3132;42.622;23.328;2023-05-01T11:08:41;10.43;;;9.87;;
6197;SDS011;3132;42.622;23.328;2023-05-01T11:13:59;9.40;;;8.70;;
6197;SDS011;3132;42.622;23.328;2023-05-01T11:16:46;10.23;;;9.63;;
6197;SDS011;3132;42.622;23.328;2023-05-01T11:21:47;10.30;;;9.37;;
6197;SDS011;3132;42.622;23.328;2023-05-01T11:24:13;9.00;;;8.60;;
6197;SDS011;3132;42.622;23.328;2023-05-01T11:26:39;9.40;;;8.63;;
6197;SDS011;3132;42.622;23.328;2023-05-01T11:29:06;8.83;;;8.43;;
6197;SDS011;3132;42.622;23.328;2023-05-01T11:31:35;9.43;;;8.73;;
6197;SDS011;3132;42.622;23.328;2023-05-01T11:34:02;9.10;;;8.60;;
6197;SDS011;3132;42.622;23.328;2023-05-01T11:36:28;9.80;;;9.10;;
6197;SDS011;3132;42.622;23.328;2023-05-01T11:38:57;8.90;;;8.40;;
6197;SDS011;3132;42.622;23.328;2023-05-01T11:41:26;10.40;;;9.70;;
6197;SDS011;3132;42.622;23.328;2023-05-01T11:43:53;9.60;;;8.97;;
6197;SDS011;3132;42.622;23.328;2023-05-01T11:46:26;9.10;;;8.63;;
6197;SDS011;3132;42.622;23.328;2023-05-01T11:48:53;10.23;;;9.63;;
6197;SDS011;3132;42.622;23.328;2023-05-01T11:51:20;10.03;;;9.20;;
6197;SDS011;3132;42.622;23.328;2023-05-01T11:54:06;9.23;;;8.77;;
6197;SDS011;3132;42.622;23.328;2023-05-01T11:56:39;8.77;;;8.33;;
6197;SDS011;3132;42.622;23.328;2023-05-01T11:59:13;9.33;;;8.67;;
6197;SDS011;3132;42.622;23.328;2023-05-01T12:01:43;7.93;;;7.43;;
6197;SDS011;3132;42.622;23.328;2023-05-01T12:04:10;8.87;;;8.47;;
6197;SDS011;3132;42.622;23.328;2023-05-01T12:06:38;9.60;;;9.07;;
6197;SDS011;3132;42.622;23.328;2023-05-01T12:09:18;9.13;;;8.60;;
6197;SDS011;3132;42.622;23.328;2023-05-01T12:11:50;9.10;;;8.67;;
6197;SDS011;3132;42.622;23.328;2023-05-01T12:14:17;9.23;;;8.63;;
6197;SDS011;3132;42.622;23.328;2023-05-01T12:16:44;8.17;;;7.77;;
6197;SDS011;3132;42.622;23.328;2023-05-01T12:19:11;8.97;;;8.57;;
6197;SDS011;3132;42.622;23.328;2023-05-01T12:21:38;8.80;;;8.33;;
6197;SDS011;3132;42.622;23.328;2023-05-01T12:24:10;7.97;;;7.57;;
6197;SDS011;3132;42.622;23.328;2023-05-01T12:26:39;8.43;;;7.93;;
6197;SDS011;3132;42.622;23.328;2023-05-01T12:29:05;8.50;;;8.03;;
6197;SDS011;3132;42.622;23.328;2023-05-01T12:31:32;8.63;;;8.23;;
6197;SDS011;3132;42.622;23.328;2023-05-01T12:33:59;8.47;;;8.07;;
6197;SDS011;3132;42.622;23.328;2023-05-01T12:36:31;8.53;;;8.13;;
6197;SDS011;3132;42.622;23.328;2023-05-01T12:38:58;8.23;;;7.87;;
6197;SDS011;3132;42.622;23.328;2023-05-01T12:41:40;8.10;;;7.80;;
6197;SDS011;3132;42.622;23.328;2023-05-01T12:49:24;7.97;;;7.67;;
6197;SDS011;3132;42.622;23.328;2023-05-01T12:51:50;8.63;;;8.17;;
6197;SDS011;3132;42.622;23.328;2023-05-01T12:54:38;8.47;;;7.87;;
6197;SDS011;3132;42.622;23.328;2023-05-01T12:59:40;7.57;;;7.17;;
6197;SDS011;3132;42.622;23.328;2023-05-01T13:02:08;7.90;;;7.60;;
6197;SDS011;3132;42.622;23.328;2023-05-01T13:04:35;8.03;;;7.63;;
6197;SDS011;3132;42.622;23.328;2023-05-01T13:07:01;7.63;;;7.33;;
6197;SDS011;3132;42.622;23.328;2023-05-01T13:09:35;7.77;;;7.47;;
6197;SDS011;3132;42.622;23.328;2023-05-01T13:12:01;8.53;;;8.13;;
6197;SDS011;3132;42.622;23.328;2023-05-01T13:14:35;7.47;;;7.07;;
6197;SDS011;3132;42.622;23.328;2023-05-01T13:17:06;8.90;;;8.13;;
6197;SDS011;3132;42.622;23.328;2023-05-01T13:19:32;8.37;;;7.97;;
6197;SDS011;3132;42.622;23.328;2023-05-01T13:21:57;8.10;;;7.77;;
6197;SDS011;3132;42.622;23.328;2023-05-01T13:24:23;9.80;;;9.30;;
6197;SDS011;3132;42.622;23.328;2023-05-01T13:26:59;8.97;;;8.47;;
6197;SDS011;3132;42.622;23.328;2023-05-01T13:29:25;9.07;;;8.60;;
6197;SDS011;3132;42.622;23.328;2023-05-01T13:31:52;9.83;;;9.13;;
6197;SDS011;3132;42.622;23.328;2023-05-01T13:34:23;8.80;;;8.40;;
6197;SDS011;3132;42.622;23.328;2023-05-01T13:36:54;8.20;;;7.70;;
6197;SDS011;3132;42.622;23.328;2023-05-01T13:39:20;8.90;;;8.40;;
6197;SDS011;3132;42.622;23.328;2023-05-01T13:41:46;8.40;;;7.97;;
6197;SDS011;3132;42.622;23.328;2023-05-01T13:44:12;9.13;;;8.63;;
6197;SDS011;3132;42.622;23.328;2023-05-01T13:46:40;8.67;;;8.27;;
6197;SDS011;3132;42.622;23.328;2023-05-01T13:49:08;8.53;;;8.03;;
6197;SDS011;3132;42.622;23.328;2023-05-01T13:51:34;9.03;;;8.63;;
6197;SDS011;3132;42.622;23.328;2023-05-01T13:54:05;9.27;;;8.80;;
6197;SDS011;3132;42.622;23.328;2023-05-01T13:56:33;9.23;;;8.73;;
6197;SDS011;3132;42.622;23.328;2023-05-01T13:58:59;8.43;;;8.03;;
6197;SDS011;3132;42.622;23.328;2023-05-01T14:01:25;9.10;;;8.70;;
6197;SDS011;3132;42.622;23.328;2023-05-01T14:03:52;8.50;;;8.10;;
6197;SDS011;3132;42.622;23.328;2023-05-01T14:06:24;9.27;;;8.57;;
6197;SDS011;3132;42.622;23.328;2023-05-01T14:08:50;9.07;;;8.30;;
6197;SDS011;3132;42.622;23.328;2023-05-01T14:11:16;8.93;;;8.43;;
6197;SDS011;3132;42.622;23.328;2023-05-01T14:13:43;7.87;;;7.47;;
6197;SDS011;3132;42.622;23.328;2023-05-01T14:16:14;7.67;;;7.37;;
6197;SDS011;3132;42.622;23.328;2023-05-01T14:18:46;8.87;;;8.40;;
6197;SDS011;3132;42.622;23.328;2023-05-01T14:21:13;7.77;;;7.47;;
6197;SDS011;3132;42.622;23.328;2023-05-01T14:23:39;8.63;;;8.13;;
6197;SDS011;3132;42.622;23.328;2023-05-01T14:26:06;8.10;;;7.70;;
6197;SDS011;3132;42.622;23.328;2023-05-01T14:28:32;9.23;;;8.67;;
6197;SDS011;3132;42.622;23.328;2023-05-01T14:30:58;8.93;;;8.40;;
6197;SDS011;3132;42.622;23.328;2023-05-01T14:33:23;9.07;;;8.57;;
6197;SDS011;3132;42.622;23.328;2023-05-01T14:35:51;8.63;;;8.23;;
6197;SDS011;3132;42.622;23.328;2023-05-01T14:38:17;8.73;;;8.23;;
6197;SDS011;3132;42.622;23.328;2023-05-01T14:40:45;9.37;;;8.87;;
6197;SDS011;3132;42.622;23.328;2023-05-01T14:43:12;8.83;;;8.33;;
6197;SDS011;3132;42.622;23.328;2023-05-01T14:45:42;7.77;;;7.33;;
6197;SDS011;3132;42.622;23.328;2023-05-01T14:48:23;8.00;;;7.60;;
6197;SDS011;3132;42.622;23.328;2023-05-01T14:50:54;8.13;;;7.73;;
6197;SDS011;3132;42.622;23.328;2023-05-01T14:53:19;9.23;;;8.73;;
6197;SDS011;3132;42.622;23.328;2023-05-01T14:55:45;8.80;;;8.40;;
6197;SDS011;3132;42.622;23.328;2023-05-01T14:58:14;9.03;;;8.33;;
6197;SDS011;3132;42.622;23.328;2023-05-01T15:00:40;8.80;;;8.30;;
6197;SDS011;3132;42.622;23.328;2023-05-01T15:03:05;9.23;;;8.73;;
6197;SDS011;3132;42.622;23.328;2023-05-01T15:05:30;8.87;;;8.20;;
6197;SDS011;3132;42.622;23.328;2023-05-01T15:07:56;8.33;;;7.90;;
6197;SDS011;3132;42.622;23.328;2023-05-01T15:10:24;9.50;;;9.00;;
6197;SDS011;3132;42.622;23.328;2023-05-01T15:12:49;11.43;;;10.60;;
6197;SDS011;3132;42.622;23.328;2023-05-01T15:15:15;9.17;;;8.70;;
6197;SDS011;3132;42.622;23.328;2023-05-01T15:17:41;9.17;;;8.77;;
6197;SDS011;3132;42.622;23.328;2023-05-01T15:20:06;10.27;;;9.67;;
6197;SDS011;3132;42.622;23.328;2023-05-01T15:22:33;10.40;;;9.27;;
6197;SDS011;3132;42.622;23.328;2023-05-01T15:24:58;10.90;;;9.83;;
6197;SDS011;3132;42.622;23.328;2023-05-01T15:27:24;10.57;;;9.87;;